Time;durP1;ratioP1;P1;durP2;ratioP2;P2;SDS_P1;SDS_P2;PMS_P1;PMS_P2;Temp;Humidity;BMP_temperature;BMP_pressure;BME280_temperature;BME280_humidity;BME280_pressure;Samples;Min_cycle;Max_cycle;Signal;HPM_P1;HPM_P2
2021/01/31 00:00:36;;;;;;;9.05;7.63;;;1.30;99.90;;;;;;5103457;28;20301;-76
2021/01/31 00:03:04;;;;;;;12.60;8.25;;;1.20;99.90;;;;;;5107613;28;20231;-76
2021/01/31 00:05:30;;;;;;;9.45;7.80;;;1.40;99.90;;;;;;5085148;28;20231;-76
2021/01/31 00:07:57;;;;;;;8.20;7.00;;;1.20;99.90;;;;;;5086012;28;20183;-76
2021/01/31 00:10:29;;;;;;;10.45;7.72;;;1.40;99.90;;;;;;5113524;28;20213;-75
2021/01/31 00:12:56;;;;;;;9.95;7.78;;;1.20;99.90;;;;;;5103389;28;20706;-75
2021/01/31 00:15:25;;;;;;;10.55;8.00;;;1.20;99.90;;;;;;5092641;28;20217;-75
2021/01/31 00:17:54;;;;;;;10.95;7.22;;;1.50;99.90;;;;;;5097661;28;20159;-75
2021/01/31 00:20:27;;;;;;;13.63;7.63;;;1.40;99.90;;;;;;5095493;28;20280;-76
2021/01/31 00:22:53;;;;;;;8.43;6.97;;;1.00;99.90;;;;;;5091246;28;20191;-76
2021/01/31 00:25:20;;;;;;;11.20;7.45;;;1.40;99.90;;;;;;5109697;28;20179;-75
2021/01/31 00:27:46;;;;;;;9.18;7.35;;;0.80;99.90;;;;;;5093025;28;20185;-75
2021/01/31 00:30:23;;;;;;;8.57;7.28;;;1.40;99.90;;;;;;5088203;28;20206;-76
2021/01/31 00:32:49;;;;;;;10.32;7.65;;;1.20;99.90;;;;;;5109564;28;20677;-75
2021/01/31 00:35:18;;;;;;;12.25;8.77;;;1.30;99.90;;;;;;5097291;28;20263;-76
2021/01/31 00:37:44;;;;;;;10.82;8.50;;;1.30;99.90;;;;;;5104235;28;20189;-76
2021/01/31 00:40:13;;;;;;;9.48;8.32;;;1.30;99.90;;;;;;5111216;28;20281;-76
2021/01/31 00:42:42;;;;;;;11.23;8.68;;;1.00;99.90;;;;;;5109298;28;20225;-75
2021/01/31 00:45:16;;;;;;;9.13;7.78;;;1.20;99.90;;;;;;5075750;28;20175;-76
2021/01/31 00:47:42;;;;;;;10.98;7.57;;;1.10;99.90;;;;;;5091912;28;20198;-76
2021/01/31 00:50:13;;;;;;;9.60;8.23;;;1.20;99.90;;;;;;5111379;28;20209;-76
2021/01/31 00:52:42;;;;;;;13.02;8.35;;;1.20;99.90;;;;;;5110700;28;20201;-76
2021/01/31 00:55:09;;;;;;;9.10;8.13;;;1.00;99.90;;;;;;5091490;28;20174;-76
2021/01/31 00:57:37;;;;;;;9.52;7.15;;;1.20;99.90;;;;;;5091287;28;20559;-75
2021/01/31 01:00:22;;;;;;;10.63;8.38;;;1.10;99.90;;;;;;5074638;28;20234;-75
2021/01/31 01:02:49;;;;;;;10.77;8.02;;;1.00;99.90;;;;;;5102155;28;21101;-76
2021/01/31 01:05:26;;;;;;;13.43;8.32;;;1.10;99.90;;;;;;5079055;28;20557;-76
2021/01/31 01:07:53;;;;;;;10.75;7.72;;;1.00;99.90;;;;;;5086431;28;20538;-76
2021/01/31 01:10:23;;;;;;;8.77;7.53;;;1.00;99.90;;;;;;5091340;28;20836;-75
2021/01/31 01:12:49;;;;;;;10.73;8.07;;;1.00;99.90;;;;;;5094861;28;20221;-75
2021/01/31 01:15:19;;;;;;;8.45;7.07;;;1.00;99.90;;;;;;5094609;28;20167;-75
2021/01/31 01:17:45;;;;;;;8.95;7.43;;;1.00;99.90;;;;;;5112061;28;20175;-75
2021/01/31 01:20:15;;;;;;;11.23;8.05;;;1.00;99.90;;;;;;5110980;28;20202;-76
2021/01/31 01:22:41;;;;;;;9.48;7.65;;;1.00;99.90;;;;;;5109730;28;20191;-75
2021/01/31 01:25:09;;;;;;;10.68;8.15;;;1.10;99.90;;;;;;5111393;28;20210;-76
2021/01/31 01:27:35;;;;;;;11.32;8.07;;;1.20;99.90;;;;;;5103895;28;20191;-75
2021/01/31 01:30:02;;;;;;;10.27;8.15;;;0.90;99.90;;;;;;5091903;28;20198;-75
2021/01/31 01:32:31;;;;;;;12.52;8.35;;;0.90;99.90;;;;;;5098495;28;20214;-75
2021/01/31 01:34:59;;;;;;;9.98;7.45;;;1.10;99.90;;;;;;5110913;28;20167;-76
2021/01/31 01:37:25;;;;;;;10.13;7.70;;;0.80;99.90;;;;;;5105565;28;20190;-75
2021/01/31 01:39:51;;;;;;;10.55;8.30;;;0.90;99.90;;;;;;5111897;28;20436;-76
2021/01/31 01:42:17;;;;;;;12.30;8.77;;;0.80;99.90;;;;;;5104166;28;20607;-75
2021/01/31 01:44:43;;;;;;;11.88;7.50;;;0.90;99.90;;;;;;5090480;28;20428;-76
2021/01/31 01:47:22;;;;;;;12.07;7.90;;;0.80;99.90;;;;;;5075511;28;20171;-75
2021/01/31 01:49:56;;;;;;;10.43;7.75;;;0.90;99.90;;;;;;5091468;28;20941;-75
2021/01/31 01:52:25;;;;;;;10.52;7.80;;;0.90;99.90;;;;;;5093124;28;20692;-76
2021/01/31 01:55:00;;;;;;;11.43;8.80;;;0.80;99.90;;;;;;5111064;28;20169;-75
2021/01/31 01:57:32;;;;;;;11.10;8.30;;;0.70;99.90;;;;;;5090925;28;20217;-76
2021/01/31 01:59:58;;;;;;;11.15;8.30;;;0.70;99.90;;;;;;5096386;28;20190;-76
2021/01/31 02:02:43;;;;;;;11.68;8.68;;;0.70;99.90;;;;;;5093772;28;20714;-75
2021/01/31 02:05:14;;;;;;;12.82;8.70;;;0.60;99.90;;;;;;5102636;28;20175;-76
2021/01/31 02:07:41;;;;;;;11.25;7.93;;;0.70;99.90;;;;;;5090237;28;20252;-75
2021/01/31 02:10:18;;;;;;;11.60;8.75;;;0.50;99.90;;;;;;5097075;28;20546;-76
2021/01/31 02:12:44;;;;;;;10.38;8.43;;;0.40;99.90;;;;;;5093111;28;20706;-75
2021/01/31 02:15:14;;;;;;;10.98;8.30;;;0.80;99.90;;;;;;5111044;28;20682;-75
2021/01/31 02:17:49;;;;;;;11.90;7.90;;;0.60;99.90;;;;;;5110625;28;20209;-75
2021/01/31 02:20:34;;;;;;;13.63;8.45;;;0.60;99.90;;;;;;5103730;28;20667;-76
2021/01/31 02:23:23;;;;;;;10.57;7.45;;;0.50;99.90;;;;;;5110227;28;20624;-74
2021/01/31 02:26:16;;;;;;;9.80;7.60;;;0.50;99.90;;;;;;5091562;28;20207;-75
2021/01/31 02:28:58;;;;;;;12.40;8.45;;;0.50;99.90;;;;;;5089720;28;20222;-75
2021/01/31 02:31:31;;;;;;;12.40;7.90;;;0.60;99.90;;;;;;5091448;28;20175;-75
2021/01/31 02:34:45;;;;;;;11.75;7.45;;;0.40;99.90;;;;;;5089991;28;20195;-75
2021/01/31 02:37:23;;;;;;;9.75;7.60;;;0.60;99.90;;;;;;5046089;28;20195;-76
2021/01/31 02:40:03;;;;;;;11.98;7.70;;;0.40;99.90;;;;;;5073347;28;20715;-76
2021/01/31 02:43:02;;;;;;;10.95;7.75;;;0.30;99.90;;;;;;5073025;28;20671;-75
2021/01/31 02:45:43;;;;;;;12.38;7.55;;;0.50;99.90;;;;;;5073282;28;20194;-75
2021/01/31 02:48:17;;;;;;;11.82;8.43;;;0.40;99.90;;;;;;5104922;28;20617;-75
2021/01/31 02:50:49;;;;;;;10.70;8.00;;;0.50;99.90;;;;;;5111045;28;20229;-75
2021/01/31 02:53:24;;;;;;;12.43;7.90;;;0.40;99.90;;;;;;5105993;28;20191;-75
2021/01/31 02:55:56;;;;;;;11.63;8.07;;;0.40;99.90;;;;;;5098720;28;20174;-75
2021/01/31 02:58:27;;;;;;;8.43;7.53;;;0.20;99.90;;;;;;5111469;28;20256;-75
2021/01/31 03:01:07;;;;;;;11.50;7.47;;;0.40;99.90;;;;;;5092976;28;20163;-75
2021/01/31 03:04:04;;;;;;;13.93;8.48;;;0.40;99.90;;;;;;5112908;28;20191;-75
2021/01/31 03:06:34;;;;;;;10.35;8.05;;;0.40;99.90;;;;;;5109943;28;20636;-75
2021/01/31 03:09:08;;;;;;;9.25;6.93;;;0.10;99.90;;;;;;5076522;28;20710;-75
2021/01/31 03:11:48;;;;;;;9.45;6.88;;;0.10;99.90;;;;;;5094215;28;20187;-75
2021/01/31 03:14:29;;;;;;;10.73;7.18;;;0.20;99.90;;;;;;5109517;28;20218;-75
2021/01/31 03:17:03;;;;;;;11.55;7.80;;;0.30;99.90;;;;;;5115348;28;20750;-75
2021/01/31 03:19:40;;;;;;;11.90;7.95;;;0.20;99.90;;;;;;5112312;28;20208;-75
2021/01/31 03:22:15;;;;;;;12.02;8.15;;;0.20;99.90;;;;;;5096366;28;20185;-75
2021/01/31 03:25:00;;;;;;;14.38;8.27;;;0.30;99.90;;;;;;5094649;28;20180;-76
2021/01/31 03:27:36;;;;;;;11.18;7.18;;;0.10;99.90;;;;;;5108418;28;20221;-75
2021/01/31 03:30:12;;;;;;;11.45;7.55;;;0.10;99.90;;;;;;5076047;28;20198;-76
2021/01/31 03:32:52;;;;;;;11.52;7.95;;;0.10;99.90;;;;;;5095805;28;20201;-76
2021/01/31 03:35:24;;;;;;;11.93;8.57;;;0.20;99.90;;;;;;5112402;28;20167;-75
2021/01/31 03:38:10;;;;;;;10.40;8.00;;;0.10;99.90;;;;;;5093982;28;20210;-76
2021/01/31 03:40:41;;;;;;;10.77;8.15;;;0.20;99.90;;;;;;5094277;28;20199;-75
2021/01/31 03:43:07;;;;;;;12.65;8.20;;;0.10;99.90;;;;;;5112824;28;20182;-76
2021/01/31 03:45:39;;;;;;;13.30;7.47;;;-0.10;99.90;;;;;;5112543;28;20643;-75
2021/01/31 03:48:16;;;;;;;12.10;7.90;;;-0.50;99.90;;;;;;5113321;28;20263;-75
2021/01/31 03:50:43;;;;;;;13.32;8.68;;;-0.10;99.90;;;;;;5092380;28;20301;-76
2021/01/31 03:53:10;;;;;;;11.23;7.60;;;-0.10;99.90;;;;;;5092126;28;20206;-75
2021/01/31 03:55:41;;;;;;;10.00;7.25;;;0.10;99.90;;;;;;5082383;28;20176;-75
2021/01/31 03:58:17;;;;;;;12.00;7.63;;;0.20;99.90;;;;;;5113340;28;20620;-75
2021/01/31 04:00:50;;;;;;;10.20;7.53;;;-0.20;99.90;;;;;;5102479;28;20226;-75
2021/01/31 04:03:25;;;;;;;8.20;7.25;;;0.00;99.90;;;;;;5093978;28;20201;-75
2021/01/31 04:05:56;;;;;;;11.02;7.45;;;0.00;99.90;;;;;;5099564;28;20183;-75
2021/01/31 04:08:23;;;;;;;11.80;7.78;;;0.00;99.90;;;;;;5075347;28;20195;-75
2021/01/31 04:10:49;;;;;;;10.63;7.97;;;-0.50;99.90;;;;;;5092013;28;20275;-76
2021/01/31 04:13:20;;;;;;;10.95;7.50;;;-0.10;99.90;;;;;;5100444;28;20264;-76
2021/01/31 04:15:50;;;;;;;10.15;7.55;;;-0.20;99.90;;;;;;5079086;28;20534;-76
2021/01/31 04:18:18;;;;;;;11.45;8.35;;;-0.20;99.90;;;;;;5113108;28;20243;-75
2021/01/31 04:20:48;;;;;;;11.00;9.10;;;-0.10;99.90;;;;;;5113741;28;20627;-75
2021/01/31 04:23:18;;;;;;;11.05;8.48;;;-0.10;99.90;;;;;;5096416;28;20227;-75
2021/01/31 04:25:46;;;;;;;10.90;7.50;;;-0.20;99.90;;;;;;5093352;28;20313;-76
2021/01/31 04:28:22;;;;;;;9.85;7.30;;;-0.20;99.90;;;;;;5108650;28;20178;-76
2021/01/31 04:30:55;;;;;;;12.68;8.25;;;-0.10;99.90;;;;;;5112037;28;20210;-76
2021/01/31 04:33:21;;;;;;;10.82;7.65;;;-0.20;99.90;;;;;;5096088;28;20651;-76
2021/01/31 04:35:52;;;;;;;10.40;7.55;;;-0.20;99.90;;;;;;5084355;22;20323;-75
2021/01/31 04:38:18;;;;;;;13.35;8.27;;;-0.20;99.90;;;;;;4972892;28;20187;-75
2021/01/31 04:40:44;;;;;;;8.95;7.22;;;-0.30;99.90;;;;;;4992547;28;20206;-74
2021/01/31 04:43:14;;;;;;;9.07;6.93;;;-0.20;99.90;;;;;;4993950;28;20180;-75
2021/01/31 04:45:40;;;;;;;11.35;7.40;;;-0.10;99.90;;;;;;4992650;28;20206;-75
2021/01/31 04:48:37;;;;;;;11.05;7.35;;;-0.30;99.90;;;;;;4976855;28;20187;-75
2021/01/31 04:51:28;;;;;;;10.77;7.65;;;-0.20;99.90;;;;;;4977238;28;20194;-74
2021/01/31 04:54:06;;;;;;;11.77;7.72;;;-0.20;99.90;;;;;;4960509;28;20205;-75
2021/01/31 04:57:04;;;;;;;12.15;7.68;;;-0.30;99.90;;;;;;4994196;28;20166;-75
2021/01/31 04:59:37;;;;;;;11.13;7.40;;;-0.40;99.90;;;;;;4992799;28;20198;-75
2021/01/31 05:02:30;;;;;;;11.45;8.30;;;-0.30;99.90;;;;;;4991458;28;20202;-75
2021/01/31 05:04:58;;;;;;;11.52;8.30;;;-0.20;99.90;;;;;;4992423;28;20195;-75
2021/01/31 05:07:51;;;;;;;10.55;7.43;;;-0.40;99.90;;;;;;4960114;28;20668;-75
2021/01/31 05:10:18;;;;;;;12.10;8.50;;;-0.50;99.90;;;;;;4992636;28;20206;-74
2021/01/31 05:13:05;;;;;;;11.70;7.90;;;-0.30;99.90;;;;;;4992291;28;20214;-75
2021/01/31 05:15:47;;;;;;;12.00;7.70;;;-0.40;99.90;;;;;;4993761;28;20171;-75
2021/01/31 05:18:17;;;;;;;11.07;7.53;;;-0.50;99.90;;;;;;4975760;28;20178;-75
2021/01/31 05:20:48;;;;;;;13.40;8.10;;;-0.30;99.90;;;;;;4956613;28;20290;-75
2021/01/31 05:23:17;;;;;;;10.13;7.80;;;-0.40;99.90;;;;;;4988066;28;20201;-74
2021/01/31 05:25:43;;;;;;;11.60;7.55;;;-0.50;99.90;;;;;;4992309;28;20644;-75
2021/01/31 05:28:09;;;;;;;11.68;8.85;;;-0.30;99.90;;;;;;4992381;28;20520;-75
2021/01/31 05:30:41;;;;;;;12.25;7.97;;;-0.30;99.90;;;;;;4992112;28;20265;-75
2021/01/31 05:33:18;;;;;;;12.40;8.15;;;-0.40;99.90;;;;;;4985111;28;20203;-75
2021/01/31 05:35:50;;;;;;;11.07;8.27;;;-1.10;99.90;;;;;;4991715;28;20221;-75
2021/01/31 05:38:41;;;;;;;11.57;7.43;;;-0.50;99.90;;;;;;4992203;28;20232;-75
2021/01/31 05:41:32;;;;;;;12.57;7.88;;;-0.40;99.90;;;;;;4992330;28;20301;-75
2021/01/31 05:44:06;;;;;;;13.60;8.63;;;-0.60;99.90;;;;;;4991982;28;20174;-75
2021/01/31 05:46:51;;;;;;;12.35;8.52;;;-0.60;99.90;;;;;;4976250;28;20695;-75
2021/01/31 05:49:37;;;;;;;11.30;7.82;;;-0.40;99.90;;;;;;4992134;28;20206;-75
2021/01/31 05:52:08;;;;;;;11.98;8.35;;;-0.40;99.90;;;;;;4991219;28;20628;-75
2021/01/31 05:54:39;;;;;;;13.52;8.88;;;-0.50;99.90;;;;;;4991710;28;20252;-75
2021/01/31 05:57:29;;;;;;;10.40;8.02;;;-0.40;99.90;;;;;;4992282;28;20221;-75
2021/01/31 05:59:58;;;;;;;12.32;7.70;;;-0.60;99.90;;;;;;4992188;28;20206;-75
2021/01/31 06:02:30;;;;;;;14.15;9.43;;;-0.80;99.90;;;;;;4975082;28;20606;-75
2021/01/31 06:05:15;;;;;;;10.10;8.35;;;-0.50;99.90;;;;;;4993035;28;20234;-75
2021/01/31 06:07:43;;;;;;;10.82;8.30;;;-0.60;99.90;;;;;;4991943;28;20206;-75
2021/01/31 06:10:15;;;;;;;10.93;8.65;;;-0.80;99.90;;;;;;4991673;28;20260;-75
2021/01/31 06:12:44;;;;;;;13.25;8.50;;;-0.50;99.90;;;;;;4992282;28;20233;-75
2021/01/31 06:15:29;;;;;;;13.65;8.13;;;-0.70;99.90;;;;;;4976100;28;20183;-75
2021/01/31 06:18:01;;;;;;;13.13;9.23;;;-0.50;99.90;;;;;;4991822;28;20171;-75
2021/01/31 06:20:39;;;;;;;12.85;8.98;;;-0.40;99.90;;;;;;4991142;28;20286;-75
2021/01/31 06:23:17;;;;;;;10.63;8.70;;;-0.50;99.90;;;;;;4975634;28;20200;-74
2021/01/31 06:25:45;;;;;;;11.13;7.57;;;-0.60;99.90;;;;;;4992679;28;20189;-75
2021/01/31 06:28:17;;;;;;;11.75;8.43;;;-0.70;99.90;;;;;;4991398;28;20194;-75
2021/01/31 06:31:09;;;;;;;14.85;8.75;;;-0.80;99.90;;;;;;4992783;28;20213;-75
2021/01/31 06:33:39;;;;;;;13.20;8.88;;;-0.70;99.90;;;;;;4960055;28;20207;-75
2021/01/31 06:36:17;;;;;;;13.38;9.35;;;-0.60;99.90;;;;;;4979097;28;20599;-75
2021/01/31 06:38:43;;;;;;;12.10;8.27;;;-0.80;99.90;;;;;;4978784;28;20182;-75
2021/01/31 06:41:36;;;;;;;12.37;9.00;;;-0.90;99.90;;;;;;4996815;28;20178;-75
2021/01/31 06:44:07;;;;;;;14.98;8.70;;;-0.70;99.90;;;;;;4994919;28;20425;-75
2021/01/31 06:46:47;;;;;;;14.10;9.15;;;-0.80;99.90;;;;;;4979566;28;20688;-75
2021/01/31 06:49:36;;;;;;;11.98;9.63;;;-0.70;99.90;;;;;;4978933;28;20671;-75
2021/01/31 06:52:11;;;;;;;11.65;8.85;;;-0.80;99.90;;;;;;4995184;28;20171;-75
2021/01/31 06:55:07;;;;;;;13.98;9.15;;;-0.90;99.90;;;;;;4994960;28;20178;-75
2021/01/31 06:57:57;;;;;;;10.43;7.70;;;-0.80;99.90;;;;;;4988539;28;20257;-76
2021/01/31 07:00:30;;;;;;;13.85;9.40;;;-0.90;99.90;;;;;;4975452;28;20205;-75
2021/01/31 07:03:16;;;;;;;13.68;8.77;;;-0.80;99.90;;;;;;4993368;28;20229;-76
2021/01/31 07:06:01;;;;;;;15.77;9.93;;;-0.70;99.90;;;;;;4994587;28;20174;-77
2021/01/31 07:09:21;;;;;;;15.32;8.63;;;-0.80;99.90;;;;;;4976856;28;20182;-76
2021/01/31 07:12:12;;;;;;;15.50;8.57;;;-0.90;99.90;;;;;;4936222;28;20402;-76
2021/01/31 07:14:46;;;;;;;12.23;8.70;;;-0.90;99.90;;;;;;4993495;28;20278;-76
2021/01/31 07:17:12;;;;;;;13.38;9.18;;;-0.80;99.90;;;;;;4993720;28;20170;-76
2021/01/31 07:20:00;;;;;;;13.00;9.33;;;-0.80;99.90;;;;;;4992060;28;20210;-76
2021/01/31 07:22:37;;;;;;;14.55;8.48;;;-0.70;99.90;;;;;;4963254;28;20794;-75
2021/01/31 07:25:39;;;;;;;21.88;15.25;;;-1.00;99.90;;;;;;4977545;28;20627;-76
2021/01/31 07:28:20;;;;;;;23.95;14.68;;;-0.90;99.90;;;;;;4976646;28;20305;-76
2021/01/31 07:31:17;;;;;;;14.52;8.98;;;-1.00;99.90;;;;;;4973220;28;20206;-76
2021/01/31 07:34:02;;;;;;;12.45;9.18;;;-0.80;99.90;;;;;;4974417;28;20207;-76
2021/01/31 07:36:36;;;;;;;16.33;9.73;;;-1.00;99.90;;;;;;4992525;28;20226;-76
2021/01/31 07:39:17;;;;;;;15.48;10.02;;;-0.90;99.90;;;;;;4975148;28;20226;-76
2021/01/31 07:41:55;;;;;;;14.57;10.10;;;-1.10;99.90;;;;;;4976405;28;20178;-76
2021/01/31 07:44:36;;;;;;;16.63;11.32;;;-0.90;99.90;;;;;;4975610;28;20229;-76
2021/01/31 07:47:03;;;;;;;17.48;11.40;;;-1.00;99.90;;;;;;4993033;28;20182;-76
2021/01/31 07:50:07;;;;;;;17.92;10.27;;;-1.00;99.90;;;;;;4992658;28;20206;-76
2021/01/31 07:52:49;;;;;;;13.73;9.45;;;-0.80;99.90;;;;;;4962821;28;20213;-76
2021/01/31 07:55:45;;;;;;;14.63;10.23;;;-1.00;99.90;;;;;;4993861;28;20644;-76
2021/01/31 07:58:19;;;;;;;16.85;11.38;;;-0.80;99.90;;;;;;4976673;28;20171;-75
2021/01/31 08:00:48;;;;;;;12.07;8.88;;;-1.20;99.90;;;;;;4991259;28;20230;-76
2021/01/31 08:03:36;;;;;;;13.13;9.30;;;-0.60;99.90;;;;;;4991216;28;20194;-76
2021/01/31 08:06:09;;;;;;;16.40;9.60;;;-0.60;99.90;;;;;;4975241;28;20198;-76
2021/01/31 08:08:40;;;;;;;13.75;9.32;;;-0.70;99.90;;;;;;4974910;28;20178;-76
2021/01/31 08:11:31;;;;;;;16.58;9.88;;;-0.70;99.90;;;;;;4991525;28;20606;-76
2021/01/31 08:14:04;;;;;;;12.75;9.02;;;-0.60;99.90;;;;;;4975338;28;20206;-76
2021/01/31 08:16:47;;;;;;;13.02;9.38;;;-0.60;99.90;;;;;;4994294;28;20183;-76
2021/01/31 08:19:19;;;;;;;13.95;9.73;;;-0.40;99.90;;;;;;4993026;28;20200;-76
2021/01/31 08:22:12;;;;;;;12.40;8.00;;;-0.40;99.90;;;;;;4994183;28;20167;-76
2021/01/31 08:25:01;;;;;;;14.00;9.63;;;-0.40;99.90;;;;;;4974979;28;20187;-77
2021/01/31 08:27:42;;;;;;;14.88;9.00;;;-0.50;99.90;;;;;;4994596;28;20178;-77
2021/01/31 08:30:32;;;;;;;12.45;8.50;;;-0.50;99.90;;;;;;4990622;28;20691;-77
2021/01/31 08:32:58;;;;;;;15.85;9.60;;;-0.20;99.90;;;;;;4995163;28;20206;-77
2021/01/31 08:35:38;;;;;;;16.97;9.83;;;-0.30;99.90;;;;;;4994004;28;20182;-77
2021/01/31 08:38:31;;;;;;;11.88;8.60;;;-0.10;99.90;;;;;;4993927;28;20414;-77
2021/01/31 08:41:03;;;;;;;15.23;9.68;;;-0.20;99.90;;;;;;4995085;28;20169;-77
2021/01/31 08:43:40;;;;;;;14.82;9.70;;;0.00;99.90;;;;;;4995026;28;20170;-77
2021/01/31 08:46:17;;;;;;;15.95;9.77;;;0.10;99.90;;;;;;4977845;28;20186;-77
2021/01/31 08:48:51;;;;;;;16.67;9.90;;;-0.20;99.90;;;;;;4993970;28;20174;-77
2021/01/31 08:51:23;;;;;;;13.52;9.00;;;0.00;99.90;;;;;;4977494;28;20200;-77
2021/01/31 08:54:11;;;;;;;16.42;10.40;;;0.50;99.90;;;;;;4977818;28;20198;-76
2021/01/31 08:56:40;;;;;;;14.85;10.07;;;0.50;99.90;;;;;;4992959;28;20221;-77
2021/01/31 08:59:10;;;;;;;13.73;9.60;;;0.50;99.90;;;;;;4977649;28;20563;-77
2021/01/31 09:01:43;;;;;;;14.68;9.50;;;0.90;99.90;;;;;;4994169;28;20674;-77
2021/01/31 09:04:14;;;;;;;13.43;9.77;;;0.90;99.90;;;;;;4993590;28;20183;-77
2021/01/31 09:06:43;;;;;;;15.93;10.35;;;1.00;99.90;;;;;;4977652;28;20505;-77
2021/01/31 09:09:26;;;;;;;14.00;8.70;;;1.30;99.90;;;;;;4993555;28;20261;-77
2021/01/31 09:11:53;;;;;;;29.85;16.65;;;1.50;99.90;;;;;;4977273;28;20263;-76
2021/01/31 09:14:24;;;;;;;20.23;11.05;;;1.50;99.90;;;;;;4977122;28;20198;-77
2021/01/31 09:16:59;;;;;;;14.18;10.23;;;1.70;99.90;;;;;;4993431;28;20182;-77
2021/01/31 09:19:25;;;;;;;19.10;11.48;;;1.60;99.90;;;;;;4994753;28;20268;-77
2021/01/31 09:22:21;;;;;;;14.50;10.17;;;1.70;99.90;;;;;;4977091;28;20171;-77
2021/01/31 09:24:51;;;;;;;15.07;10.30;;;1.90;99.90;;;;;;4976983;28;20516;-77
2021/01/31 09:27:24;;;;;;;10.93;9.23;;;2.20;99.90;;;;;;4994370;28;20182;-77
2021/01/31 09:29:59;;;;;;;10.32;9.30;;;2.20;99.90;;;;;;4993050;28;20199;-77
2021/01/31 09:32:35;;;;;;;9.88;7.88;;;2.30;99.90;;;;;;4994095;28;20179;-77
2021/01/31 09:35:07;;;;;;;11.25;8.68;;;2.30;99.90;;;;;;4992867;28;20170;-77
2021/01/31 09:37:33;;;;;;;12.98;8.65;;;2.70;99.90;;;;;;4994133;28;20652;-77
2021/01/31 09:40:09;;;;;;;14.75;9.18;;;2.70;99.90;;;;;;4993628;28;20684;-77
2021/01/31 09:42:47;;;;;;;13.40;10.25;;;2.80;99.90;;;;;;5072732;28;20513;-77
2021/01/31 09:45:22;;;;;;;13.60;10.68;;;2.80;99.90;;;;;;5052718;28;20172;-76
2021/01/31 09:47:50;;;;;;;12.90;9.57;;;2.90;99.90;;;;;;5069310;28;20186;-76
2021/01/31 09:50:17;;;;;;;12.95;9.60;;;2.90;99.90;;;;;;5069302;28;20226;-76
2021/01/31 09:52:51;;;;;;;13.23;10.70;;;2.90;99.90;;;;;;5069424;28;20169;-76
2021/01/31 09:55:47;;;;;;;10.93;9.20;;;3.20;99.90;;;;;;5068961;28;20171;-77
2021/01/31 09:58:22;;;;;;;12.20;9.82;;;2.80;99.90;;;;;;5069598;28;20589;-76
2021/01/31 10:00:53;;;;;;;16.15;10.52;;;2.90;99.90;;;;;;5070014;28;20253;-77
2021/01/31 10:03:27;;;;;;;13.80;11.82;;;2.80;99.90;;;;;;5070099;28;20172;-76
2021/01/31 10:06:15;;;;;;;13.38;10.60;;;2.80;99.90;;;;;;5069985;28;20166;-76
2021/01/31 10:08:58;;;;;;;15.45;10.93;;;3.00;99.90;;;;;;5052424;28;20187;-76
2021/01/31 10:11:34;;;;;;;19.17;11.43;;;3.10;99.90;;;;;;5070016;28;20164;-76
2021/01/31 10:14:01;;;;;;;17.20;11.38;;;2.90;99.90;;;;;;5052108;28;20191;-76
2021/01/31 10:16:32;;;;;;;16.00;11.18;;;3.10;99.90;;;;;;5068656;28;20172;-77
2021/01/31 10:19:12;;;;;;;12.85;10.73;;;3.10;99.90;;;;;;5069758;28;20200;-76
2021/01/31 10:21:42;;;;;;;12.20;9.65;;;3.00;99.90;;;;;;5068759;28;20660;-76
2021/01/31 10:24:17;;;;;;;13.82;8.93;;;2.90;99.90;;;;;;5069973;28;20166;-76
2021/01/31 10:26:45;;;;;;;11.73;8.70;;;2.90;99.90;;;;;;5069578;28;20223;-77
2021/01/31 10:29:21;;;;;;;11.25;8.40;;;3.10;99.90;;;;;;5069733;28;20696;-76
2021/01/31 10:31:48;;;;;;;10.80;9.68;;;3.20;99.90;;;;;;5070195;28;20176;-77
2021/01/31 10:34:39;;;;;;;10.98;8.45;;;3.30;99.90;;;;;;5051914;28;20251;-77
2021/01/31 10:37:30;;;;;;;11.30;9.55;;;3.00;99.90;;;;;;5051664;28;20644;-76
2021/01/31 10:39:56;;;;;;;10.43;8.73;;;3.10;99.90;;;;;;5069286;28;20207;-76
2021/01/31 10:42:24;;;;;;;10.80;8.90;;;3.10;99.90;;;;;;5051450;28;20844;-75
2021/01/31 10:44:51;;;;;;;10.57;8.35;;;3.10;99.90;;;;;;5052997;28;20180;-76
2021/01/31 10:47:17;;;;;;;11.25;9.75;;;3.10;99.90;;;;;;5056064;28;20169;-78
2021/01/31 10:49:43;;;;;;;9.60;8.63;;;3.30;99.90;;;;;;5032831;28;20205;-77
2021/01/31 10:52:12;;;;;;;9.48;8.52;;;3.10;99.90;;;;;;5047864;28;20187;-79
2021/01/31 10:54:39;;;;;;;11.00;9.63;;;3.30;99.90;;;;;;5045463;28;20169;-78
2021/01/31 10:57:05;;;;;;;10.07;9.07;;;3.20;99.90;;;;;;5051450;28;20180;-76
2021/01/31 10:59:31;;;;;;;10.68;9.57;;;3.10;99.90;;;;;;5033350;28;20213;-75
2021/01/31 11:01:57;;;;;;;11.68;8.98;;;3.50;99.90;;;;;;5021430;28;20197;-77
2021/01/31 11:04:23;;;;;;;9.20;8.30;;;3.30;99.90;;;;;;5050492;28;20248;-76
2021/01/31 11:06:50;;;;;;;13.27;9.50;;;3.30;99.90;;;;;;5040925;28;20203;-77
2021/01/31 11:09:16;;;;;;;11.55;10.25;;;3.50;99.90;;;;;;5055073;28;20708;-77
2021/01/31 11:11:44;;;;;;;12.15;9.38;;;3.60;99.90;;;;;;5056940;28;20173;-77
2021/01/31 11:14:12;;;;;;;11.40;9.57;;;3.60;99.90;;;;;;5054794;28;20179;-78
2021/01/31 11:16:38;;;;;;;10.98;8.65;;;3.60;99.90;;;;;;5037368;28;20178;-80
2021/01/31 11:19:04;;;;;;;10.52;8.70;;;3.60;99.90;;;;;;5037808;28;20207;-77
2021/01/31 11:21:30;;;;;;;10.10;8.32;;;3.70;99.90;;;;;;5041303;28;20199;-80
2021/01/31 11:23:56;;;;;;;10.40;8.90;;;3.70;99.90;;;;;;5039103;28;20168;-76
2021/01/31 11:26:24;;;;;;;10.75;8.85;;;3.70;99.90;;;;;;5056185;28;20267;-79
2021/01/31 11:28:51;;;;;;;10.13;8.98;;;3.90;99.90;;;;;;5051735;28;20220;-77
2021/01/31 11:31:21;;;;;;;12.00;8.93;;;3.60;99.90;;;;;;5036800;28;20189;-78
2021/01/31 11:33:50;;;;;;;12.40;9.70;;;3.70;99.90;;;;;;5046675;28;20188;-79
2021/01/31 11:36:19;;;;;;;10.13;8.30;;;3.80;99.90;;;;;;5048988;28;20178;-78
2021/01/31 11:38:45;;;;;;;11.10;8.63;;;3.70;99.90;;;;;;5015642;28;20193;-78
2021/01/31 11:41:15;;;;;;;10.65;7.90;;;3.80;99.90;;;;;;5048830;28;20232;-77
2021/01/31 11:43:41;;;;;;;10.98;9.48;;;3.80;99.90;;;;;;5076210;28;20176;-78
2021/01/31 11:46:07;;;;;;;10.30;9.00;;;3.80;99.90;;;;;;5064513;28;20176;-78
2021/01/31 11:48:33;;;;;;;10.18;8.98;;;3.60;99.90;;;;;;5050947;28;20407;-76
2021/01/31 11:50:59;;;;;;;11.63;10.38;;;3.50;99.90;;;;;;5022396;28;20185;-77
2021/01/31 11:53:25;;;;;;;11.17;10.07;;;3.50;99.90;;;;;;5053182;28;20223;-78
2021/01/31 11:55:54;;;;;;;10.90;9.80;;;3.50;99.90;;;;;;5044551;28;20439;-77
2021/01/31 11:58:20;;;;;;;11.90;10.20;;;3.60;99.90;;;;;;5035549;28;20165;-77
2021/01/31 12:00:46;;;;;;;11.20;9.80;;;3.70;99.90;;;;;;5048880;28;20208;-75
2021/01/31 12:03:15;;;;;;;12.13;10.30;;;3.90;99.90;;;;;;5052895;28;20530;-75
2021/01/31 12:05:41;;;;;;;10.65;9.55;;;3.90;99.90;;;;;;5031805;28;20202;-77
2021/01/31 12:08:07;;;;;;;10.88;9.52;;;3.90;99.90;;;;;;5048933;28;20172;-75
2021/01/31 12:10:33;;;;;;;10.65;9.55;;;3.90;99.90;;;;;;5052793;28;20207;-75
2021/01/31 12:13:02;;;;;;;11.20;8.90;;;3.90;99.90;;;;;;5052966;28;20680;-74
2021/01/31 12:15:30;;;;;;;11.68;9.68;;;4.00;99.90;;;;;;5052731;28;20168;-74
2021/01/31 12:17:56;;;;;;;10.50;9.43;;;4.00;99.90;;;;;;5035301;28;20247;-75
2021/01/31 12:20:22;;;;;;;10.00;9.10;;;4.10;99.90;;;;;;5032789;28;20201;-75
2021/01/31 12:22:51;;;;;;;12.48;9.63;;;4.00;99.90;;;;;;5032273;28;20176;-75
2021/01/31 12:25:18;;;;;;;12.03;9.17;;;3.90;99.90;;;;;;5014887;28;20627;-75
2021/01/31 12:27:48;;;;;;;11.82;10.57;;;4.20;99.90;;;;;;5032355;28;20408;-74
2021/01/31 12:30:21;;;;;;;10.80;9.48;;;4.20;99.90;;;;;;5016591;28;20212;-74
2021/01/31 12:32:50;;;;;;;12.85;10.35;;;4.10;99.90;;;;;;5032986;28;20184;-76
2021/01/31 12:35:16;;;;;;;9.93;8.93;;;4.20;99.90;;;;;;5033949;28;20177;-77
2021/01/31 12:37:45;;;;;;;10.90;9.73;;;4.20;99.90;;;;;;5032987;22;20907;-71
2021/01/31 12:40:13;;;;;;;12.18;10.35;;;4.30;99.90;;;;;;4980867;28;20214;-71
2021/01/31 12:42:39;;;;;;;10.05;8.70;;;4.30;99.90;;;;;;4972247;28;20241;-70
2021/01/31 12:45:09;;;;;;;10.05;9.05;;;4.40;99.90;;;;;;4987411;28;20608;-72
2021/01/31 12:47:38;;;;;;;9.50;8.50;;;4.50;99.90;;;;;;4992079;28;20550;-74
2021/01/31 12:50:06;;;;;;;11.05;9.95;;;4.50;99.90;;;;;;4973052;28;20609;-72
2021/01/31 12:52:35;;;;;;;10.57;9.10;;;4.60;99.90;;;;;;4974793;28;20224;-71
2021/01/31 12:55:05;;;;;;;9.77;8.80;;;4.60;99.90;;;;;;4979750;28;20846;-71
2021/01/31 12:57:31;;;;;;;10.07;9.07;;;4.60;99.90;;;;;;4958293;28;20211;-71
2021/01/31 13:00:00;;;;;;;13.25;9.95;;;4.80;99.90;;;;;;4991665;28;20206;-71
2021/01/31 13:02:29;;;;;;;11.27;9.70;;;4.70;99.90;;;;;;4947442;28;20237;-71
2021/01/31 13:04:55;;;;;;;10.70;9.60;;;4.80;99.90;;;;;;4971564;28;20215;-71
2021/01/31 13:07:21;;;;;;;10.33;9.03;;;4.70;99.60;;;;;;4973328;28;20214;-71
2021/01/31 13:09:47;;;;;;;11.05;9.95;;;4.80;99.90;;;;;;4972031;28;20478;-71
2021/01/31 13:12:13;;;;;;;12.17;9.80;;;4.90;99.90;;;;;;4972107;28;20210;-71
2021/01/31 13:14:40;;;;;;;10.32;9.20;;;4.80;99.60;;;;;;4973065;28;20805;-71
2021/01/31 13:17:08;;;;;;;10.95;9.77;;;4.60;99.80;;;;;;4966922;28;20176;-71